Time;durP1;ratioP1;P1;durP2;ratioP2;P2;SDS_P1;SDS_P2;PMS_P1;PMS_P2;Temp;Humidity;BMP_temperature;BMP_pressure;BME280_temperature;BME280_humidity;BME280_pressure;Samples;Min_cycle;Max_cycle;Signal;HPM_P1;HPM_P2
2023/10/16 00:00:49;;;;;;;0.10;0.10;;;;;;;;;;5050109;28;20135;-63
2023/10/16 00:03:17;;;;;;;0.00;0.00;;;;;;;;;;5049459;28;20041;-63
2023/10/16 00:05:49;;;;;;;0.10;0.10;;;;;;;;;;5050752;28;20056;-63
2023/10/16 00:08:16;;;;;;;0.03;0.03;;;;;;;;;;5049851;28;20458;-63
2023/10/16 00:10:43;;;;;;;0.40;0.40;;;;;;;;;;5049473;28;20041;-63
2023/10/16 00:13:12;;;;;;;0.00;0.00;;;;;;;;;;5048658;28;20080;-63
2023/10/16 00:15:49;;;;;;;0.10;0.10;;;;;;;;;;5049610;28;20136;-63
2023/10/16 00:18:22;;;;;;;0.10;0.10;;;;;;;;;;5065768;28;20045;-63
2023/10/16 00:20:47;;;;;;;0.10;0.10;;;;;;;;;;5048895;28;20060;-63
2023/10/16 00:23:13;;;;;;;3.93;2.17;;;;;;;;;;5049535;28;20052;-64
2023/10/16 00:25:43;;;;;;;0.00;0.00;;;;;;;;;;5049342;28;20044;-63
2023/10/16 00:28:09;;;;;;;0.00;0.00;;;;;;;;;;5049192;28;20057;-63
2023/10/16 00:30:36;;;;;;;7.00;0.50;;;;;;;;;;5048888;28;20049;-65
2023/10/16 00:33:04;;;;;;;0.00;0.00;;;;;;;;;;5048969;28;20037;-63
2023/10/16 00:35:30;;;;;;;0.10;0.10;;;;;;;;;;5049345;28;20055;-66
2023/10/16 00:37:57;;;;;;;0.40;0.40;;;;;;;;;;5056777;28;20053;-63
2023/10/16 00:40:31;;;;;;;0.10;0.10;;;;;;;;;;5049165;28;20128;-63
2023/10/16 00:43:17;;;;;;;0.00;0.00;;;;;;;;;;5048781;28;20124;-63
2023/10/16 00:45:48;;;;;;;0.10;0.10;;;;;;;;;;5048940;28;20128;-63
2023/10/16 00:48:15;;;;;;;0.00;0.00;;;;;;;;;;5048346;28;20049;-64
2023/10/16 00:50:41;;;;;;;0.00;0.00;;;;;;;;;;5047638;28;20565;-63
2023/10/16 00:53:07;;;;;;;0.00;0.00;;;;;;;;;;5048162;28;20400;-63
2023/10/16 00:55:34;;;;;;;0.00;0.00;;;;;;;;;;5048560;28;20045;-63
2023/10/16 00:58:00;;;;;;;0.10;0.10;;;;;;;;;;5048652;28;20522;-63
2023/10/16 01:00:27;;;;;;;0.00;0.00;;;;;;;;;;5048645;28;20040;-64
2023/10/16 01:02:53;;;;;;;0.00;0.00;;;;;;;;;;5048505;28;20060;-63
2023/10/16 01:05:23;;;;;;;0.00;0.00;;;;;;;;;;5052895;28;20037;-63
2023/10/16 01:07:50;;;;;;;0.10;0.10;;;;;;;;;;5058783;28;20049;-64
2023/10/16 01:10:16;;;;;;;0.40;0.40;;;;;;;;;;5048286;28;20061;-63
2023/10/16 01:12:54;;;;;;;0.10;0.10;;;;;;;;;;5048837;28;20049;-63
2023/10/16 01:15:20;;;;;;;0.10;0.10;;;;;;;;;;5047049;28;20102;-63
2023/10/16 01:17:46;;;;;;;0.00;0.00;;;;;;;;;;5031182;28;20052;-63
2023/10/16 01:20:13;;;;;;;0.00;0.00;;;;;;;;;;5047902;28;20037;-63
2023/10/16 01:22:39;;;;;;;1.30;1.13;;;;;;;;;;5048581;28;20103;-63
2023/10/16 01:25:08;;;;;;;0.00;0.00;;;;;;;;;;5048715;28;20087;-63
2023/10/16 01:27:37;;;;;;;0.00;0.00;;;;;;;;;;5061957;28;20051;-63
2023/10/16 01:30:05;;;;;;;0.10;0.10;;;;;;;;;;5062527;28;20036;-63
2023/10/16 01:32:31;;;;;;;0.10;0.10;;;;;;;;;;5068212;28;20072;-63
2023/10/16 01:35:01;;;;;;;0.00;0.00;;;;;;;;;;5060987;28;20553;-63
2023/10/16 01:37:27;;;;;;;0.40;0.40;;;;;;;;;;5048487;28;20061;-63
2023/10/16 01:40:12;;;;;;;0.10;0.10;;;;;;;;;;5048483;28;20041;-63
2023/10/16 01:42:39;;;;;;;0.10;0.10;;;;;;;;;;5048018;28;20071;-63
2023/10/16 01:45:06;;;;;;;0.93;0.93;;;;;;;;;;5061098;28;20049;-63
2023/10/16 01:47:34;;;;;;;0.27;0.27;;;;;;;;;;5068416;28;20056;-63
2023/10/16 01:50:01;;;;;;;0.10;0.10;;;;;;;;;;5050788;28;20045;-63
2023/10/16 01:52:27;;;;;;;0.00;0.00;;;;;;;;;;5048291;28;20426;-63
2023/10/16 01:54:56;;;;;;;0.20;0.20;;;;;;;;;;5047819;28;20037;-63
2023/10/16 01:57:22;;;;;;;0.07;0.07;;;;;;;;;;5048211;28;20419;-63
2023/10/16 01:59:48;;;;;;;0.20;0.20;;;;;;;;;;5047982;28;20033;-63
2023/10/16 02:02:14;;;;;;;0.00;0.00;;;;;;;;;;5048126;28;20064;-63
2023/10/16 02:04:40;;;;;;;0.00;0.00;;;;;;;;;;5048259;28;20043;-63
2023/10/16 02:07:08;;;;;;;0.10;0.10;;;;;;;;;;5052336;28;20521;-63
2023/10/16 02:09:38;;;;;;;0.20;0.20;;;;;;;;;;5056503;28;20055;-63
2023/10/16 02:12:14;;;;;;;0.20;0.20;;;;;;;;;;5047913;28;20355;-63
2023/10/16 02:14:40;;;;;;;0.20;0.20;;;;;;;;;;5048249;28;20048;-63
2023/10/16 02:17:14;;;;;;;0.10;0.10;;;;;;;;;;5047692;28;20533;-63
2023/10/16 02:19:43;;;;;;;;;;;;;;;;;;5060879;28;20057;-63
2023/10/16 02:22:09;;;;;;;0.13;0.13;;;;;;;;;;5069130;28;19922;-63
2023/10/16 02:24:37;;;;;;;0.30;0.30;;;;;;;;;;5071924;28;20045;-63
2023/10/16 02:27:03;;;;;;;0.10;0.10;;;;;;;;;;5071430;28;20131;-63
2023/10/16 02:29:31;;;;;;;1.30;0.77;;;;;;;;;;5069863;28;20045;-64
2023/10/16 02:32:03;;;;;;;0.20;0.20;;;;;;;;;;5071772;28;20073;-63
2023/10/16 02:34:33;;;;;;;0.00;0.00;;;;;;;;;;5054647;28;20519;-63
2023/10/16 02:37:00;;;;;;;0.93;0.83;;;;;;;;;;5051168;28;20065;-64
2023/10/16 02:39:35;;;;;;;0.10;0.10;;;;;;;;;;5051416;28;20061;-63
2023/10/16 02:42:06;;;;;;;0.67;0.57;;;;;;;;;;5050684;28;20052;-63
2023/10/16 02:44:33;;;;;;;0.10;0.10;;;;;;;;;;5056554;28;20048;-63
2023/10/16 02:46:59;;;;;;;0.50;0.50;;;;;;;;;;5069834;28;20045;-64
2023/10/16 02:49:25;;;;;;;1.07;0.93;;;;;;;;;;5058922;28;20060;-63
2023/10/16 02:51:52;;;;;;;0.10;0.10;;;;;;;;;;5051165;28;20040;-63
2023/10/16 02:54:18;;;;;;;0.30;0.30;;;;;;;;;;5051278;28;20491;-63
2023/10/16 02:56:45;;;;;;;0.00;0.00;;;;;;;;;;5050780;28;20122;-63
2023/10/16 02:59:11;;;;;;;0.10;0.10;;;;;;;;;;5051076;28;20569;-63
2023/10/16 03:01:38;;;;;;;0.67;0.67;;;;;;;;;;5051335;28;20415;-63
2023/10/16 03:04:05;;;;;;;0.77;0.50;;;;;;;;;;5049966;28;20051;-63
2023/10/16 03:06:39;;;;;;;0.20;0.20;;;;;;;;;;5051292;28;20079;-63
2023/10/16 03:11:56;;;;;;;0.20;0.20;;;;;;;;;;5070922;28;20044;-63
2023/10/16 03:14:22;;;;;;;0.20;0.20;;;;;;;;;;5071090;28;20053;-63
2023/10/16 03:16:48;;;;;;;0.07;0.07;;;;;;;;;;5071041;28;20114;-63
2023/10/16 03:19:16;;;;;;;0.10;0.10;;;;;;;;;;5070762;28;20080;-63
2023/10/16 03:21:45;;;;;;;0.30;0.30;;;;;;;;;;5070372;28;20052;-63
2023/10/16 03:24:12;;;;;;;0.47;0.47;;;;;;;;;;5070957;28;20518;-63
2023/10/16 03:26:42;;;;;;;0.10;0.10;;;;;;;;;;5070423;28;20068;-63
2023/10/16 03:29:08;;;;;;;0.57;0.57;;;;;;;;;;5070790;28;20084;-63
2023/10/16 03:31:36;;;;;;;3.10;0.60;;;;;;;;;;5070490;28;20469;-63
2023/10/16 03:34:02;;;;;;;0.20;0.20;;;;;;;;;;5069534;28;20036;-63
2023/10/16 03:36:28;;;;;;;0.10;0.10;;;;;;;;;;5070805;28;20504;-63
2023/10/16 03:38:57;;;;;;;0.00;0.00;;;;;;;;;;5064985;28;20049;-63
2023/10/16 03:43:56;;;;;;;0.00;0.00;;;;;;;;;;5050522;28;20056;-63
2023/10/16 03:46:23;;;;;;;0.00;0.00;;;;;;;;;;5050698;28;20129;-63
2023/10/16 03:48:49;;;;;;;0.10;0.10;;;;;;;;;;5049797;28;20483;-63
2023/10/16 03:51:16;;;;;;;0.00;0.00;;;;;;;;;;5049583;28;20045;-63
2023/10/16 03:53:44;;;;;;;0.00;0.00;;;;;;;;;;5050418;28;20462;-63
2023/10/16 03:56:11;;;;;;;0.00;0.00;;;;;;;;;;5050526;28;20053;-63
2023/10/16 03:58:41;;;;;;;0.20;0.20;;;;;;;;;;5050432;28;20045;-63
2023/10/16 04:01:07;;;;;;;0.07;0.07;;;;;;;;;;5059371;28;20056;-63
2023/10/16 04:03:47;;;;;;;0.00;0.00;;;;;;;;;;5069535;28;20036;-63
2023/10/16 04:06:21;;;;;;;0.10;0.10;;;;;;;;;;5070231;28;20052;-63
2023/10/16 04:08:47;;;;;;;0.00;0.00;;;;;;;;;;5069723;28;20044;-63
2023/10/16 04:11:14;;;;;;;0.53;0.53;;;;;;;;;;5069754;28;20124;-63
2023/10/16 04:13:49;;;;;;;0.57;0.57;;;;;;;;;;5069771;28;20040;-65
2023/10/16 04:21:43;;;;;;;0.00;0.00;;;;;;;;;;5069110;28;20425;-63
2023/10/16 04:32:37;;;;;;;0.00;0.00;;;;;;;;;;5069242;28;20057;-63
2023/10/16 04:35:04;;;;;;;0.10;0.10;;;;;;;;;;5069084;28;20044;-63
2023/10/16 04:37:36;;;;;;;0.20;0.20;;;;;;;;;;5064740;28;20599;-63
2023/10/16 05:03:43;;;;;;;0.00;0.00;;;;;;;;;;5068948;28;20128;-63
2023/10/16 05:11:33;;;;;;;0.30;0.30;;;;;;;;;;5068972;28;20473;-63
2023/10/16 05:17:19;;;;;;;0.10;0.10;;;;;;;;;;5068733;28;20041;-63
2023/10/16 05:20:34;;;;;;;0.00;0.00;;;;;;;;;;5068646;28;20045;-63
2023/10/16 06:14:45;;;;;;;0.00;0.00;;;;;;;;;;5052107;28;20557;-63
2023/10/16 06:17:15;;;;;;;0.00;0.00;;;;;;;;;;5051686;28;20511;-63
2023/10/16 06:19:42;;;;;;;0.00;0.00;;;;;;;;;;5068525;28;20447;-63
2023/10/16 06:22:09;;;;;;;0.00;0.00;;;;;;;;;;5071664;28;20088;-63
2023/10/16 06:24:44;;;;;;;0.30;0.30;;;;;;;;;;5071110;28;20067;-63
2023/10/16 06:27:12;;;;;;;0.17;0.17;;;;;;;;;;5071438;28;20685;-63
2023/10/16 06:29:49;;;;;;;0.00;0.00;;;;;;;;;;5064818;28;20102;-63
2023/10/16 06:32:18;;;;;;;0.00;0.00;;;;;;;;;;5051032;28;20127;-63
2023/10/16 06:34:47;;;;;;;4.30;1.33;;;;;;;;;;5052514;28;20094;-63
2023/10/16 06:37:17;;;;;;;0.10;0.10;;;;;;;;;;5064783;28;20062;-63
2023/10/16 06:39:44;;;;;;;0.10;0.10;;;;;;;;;;5067629;28;20502;-63
2023/10/16 06:42:17;;;;;;;0.00;0.00;;;;;;;;;;5069755;28;20049;-63
2023/10/16 06:44:50;;;;;;;0.10;0.10;;;;;;;;;;5069915;28;20045;-63
2023/10/16 06:47:16;;;;;;;0.10;0.10;;;;;;;;;;5070753;28;20092;-63
2023/10/16 06:49:42;;;;;;;0.20;0.20;;;;;;;;;;5070194;28;20119;-64
2023/10/16 06:52:17;;;;;;;0.00;0.00;;;;;;;;;;5069185;28;20045;-63
2023/10/16 06:54:44;;;;;;;0.30;0.30;;;;;;;;;;5058455;28;20095;-63
2023/10/16 06:57:13;;;;;;;0.97;0.80;;;;;;;;;;5071149;28;20055;-64
2023/10/16 06:59:40;;;;;;;1.17;0.77;;;;;;;;;;5069989;28;20048;-64
2023/10/16 07:02:07;;;;;;;0.10;0.10;;;;;;;;;;5070227;28;20045;-64
2023/10/16 07:04:33;;;;;;;0.13;0.13;;;;;;;;;;5070720;28;20041;-63
2023/10/16 07:06:59;;;;;;;0.00;0.00;;;;;;;;;;5070407;28;20388;-63
2023/10/16 07:09:38;;;;;;;0.47;0.47;;;;;;;;;;5068554;28;20127;-64
2023/10/16 07:12:04;;;;;;;0.17;0.17;;;;;;;;;;5068122;28;20059;-64
2023/10/16 07:14:30;;;;;;;0.40;0.40;;;;;;;;;;5070398;28;20644;-63
2023/10/16 07:16:59;;;;;;;0.10;0.10;;;;;;;;;;5069787;28;20045;-63
2023/10/16 07:19:25;;;;;;;0.20;0.20;;;;;;;;;;5069310;28;20053;-63
2023/10/16 07:21:51;;;;;;;0.10;0.10;;;;;;;;;;5070682;28;20460;-63
2023/10/16 07:24:17;;;;;;;0.00;0.00;;;;;;;;;;5069114;28;20044;-63
2023/10/16 07:26:46;;;;;;;0.00;0.00;;;;;;;;;;5069040;28;20045;-62
2023/10/16 07:29:13;;;;;;;0.20;0.20;;;;;;;;;;5069330;28;20047;-62
2023/10/16 07:31:39;;;;;;;0.10;0.10;;;;;;;;;;5070045;28;20115;-62
2023/10/16 07:34:05;;;;;;;0.10;0.10;;;;;;;;;;5068290;28;20099;-63
2023/10/16 07:36:31;;;;;;;0.00;0.00;;;;;;;;;;5069650;28;20094;-63
2023/10/16 07:38:57;;;;;;;0.30;0.30;;;;;;;;;;5069792;28;20273;-63
2023/10/16 07:41:23;;;;;;;0.17;0.17;;;;;;;;;;5065113;28;20057;-63
2023/10/16 07:43:56;;;;;;;0.03;0.03;;;;;;;;;;5059279;28;20084;-66
2023/10/16 07:46:29;;;;;;;0.27;0.27;;;;;;;;;;5063590;28;20536;-68
2023/10/16 07:48:56;;;;;;;0.20;0.20;;;;;;;;;;5068948;28;20052;-62
2023/10/16 07:51:25;;;;;;;11.90;0.70;;;;;;;;;;5069815;28;20059;-62
2023/10/16 07:53:51;;;;;;;0.10;0.10;;;;;;;;;;5062619;28;20469;-62
2023/10/16 07:56:19;;;;;;;0.10;0.10;;;;;;;;;;5049606;28;20047;-63
2023/10/16 07:58:48;;;;;;;1.13;0.63;;;;;;;;;;5049185;28;20400;-63
2023/10/16 08:03:41;;;;;;;0.20;0.20;;;;;;;;;;5049202;28;20052;-63
2023/10/16 08:06:17;;;;;;;0.27;0.27;;;;;;;;;;5049469;28;20491;-63
2023/10/16 08:08:49;;;;;;;0.10;0.10;;;;;;;;;;5049590;28;20052;-62
2023/10/16 08:11:18;;;;;;;0.00;0.00;;;;;;;;;;5049333;28;20041;-63
2023/10/16 08:13:48;;;;;;;0.33;0.33;;;;;;;;;;5048165;28;20037;-63
2023/10/16 08:16:18;;;;;;;0.10;0.10;;;;;;;;;;5048388;28;20049;-63
2023/10/16 08:18:47;;;;;;;0.33;0.33;;;;;;;;;;5048875;28;20147;-65
2023/10/16 08:21:23;;;;;;;0.20;0.20;;;;;;;;;;5048583;28;20045;-63
2023/10/16 08:23:50;;;;;;;0.30;0.30;;;;;;;;;;5049120;28;20041;-63
2023/10/16 08:26:28;;;;;;;0.10;0.10;;;;;;;;;;5048491;28;20530;-63
2023/10/16 08:32:43;;;;;;;0.10;0.10;;;;;;;;;;5049087;28;20177;-63
2023/10/16 08:34:35;;;;;;;0.00;0.00;;;;;;;;;;5048433;28;20418;-63
2023/10/16 08:37:03;;;;;;;0.00;0.00;;;;;;;;;;5048452;28;20053;-63
2023/10/16 08:39:36;;;;;;;0.10;0.10;;;;;;;;;;5048816;28;20512;-63
2023/10/16 08:42:11;;;;;;;1.10;0.68;;;;;;;;;;5048699;28;20084;-63
2023/10/16 08:44:37;;;;;;;0.20;0.20;;;;;;;;;;5047561;28;20096;-63
2023/10/16 08:49:30;;;;;;;0.00;0.00;;;;;;;;;;5048467;28;20495;-63
2023/10/16 08:52:03;;;;;;;0.20;0.20;;;;;;;;;;5048423;28;20545;-63
2023/10/16 08:54:53;;;;;;;0.63;0.63;;;;;;;;;;5048642;28;20476;-63
2023/10/16 08:57:25;;;;;;;0.00;0.00;;;;;;;;;;5048638;28;20098;-63
2023/10/16 08:59:52;;;;;;;0.40;0.40;;;;;;;;;;5048452;28;20045;-63
2023/10/16 09:02:19;;;;;;;0.00;0.00;;;;;;;;;;5046693;28;20152;-63
2023/10/16 09:04:48;;;;;;;0.40;0.40;;;;;;;;;;5048434;28;20525;-63
2023/10/16 09:07:17;;;;;;;1.50;0.93;;;;;;;;;;5048295;28;20103;-64
2023/10/16 09:09:48;;;;;;;0.43;0.43;;;;;;;;;;5049133;28;20052;-63
2023/10/16 09:12:14;;;;;;;0.00;0.00;;;;;;;;;;5064060;28;20053;-64
2023/10/16 09:14:41;;;;;;;0.37;0.37;;;;;;;;;;5067732;28;20087;-63
2023/10/16 09:17:08;;;;;;;0.00;0.00;;;;;;;;;;5067924;28;20098;-64
2023/10/16 09:19:34;;;;;;;0.00;0.00;;;;;;;;;;5068025;28;20047;-64
2023/10/16 09:22:10;;;;;;;0.00;0.00;;;;;;;;;;5065720;28;20101;-63
2023/10/16 09:24:36;;;;;;;0.00;0.00;;;;;;;;;;5054596;28;20151;-64
2023/10/16 09:27:18;;;;;;;0.00;0.00;;;;;;;;;;5067532;28;20460;-64
2023/10/16 09:29:46;;;;;;;0.10;0.10;;;;;;;;;;5067665;28;20052;-64
2023/10/16 09:32:13;;;;;;;0.50;0.50;;;;;;;;;;5051291;28;20136;-64
2023/10/16 09:34:39;;;;;;;0.13;0.13;;;;;;;;;;5048087;28;20085;-64
2023/10/16 09:37:15;;;;;;;0.03;0.03;;;;;;;;;;5048360;28;20065;-64
2023/10/16 09:39:46;;;;;;;0.10;0.10;;;;;;;;;;5030475;28;20068;-64
2023/10/16 09:42:12;;;;;;;0.03;0.03;;;;;;;;;;5047934;28;20102;-64
2023/10/16 09:44:44;;;;;;;0.20;0.20;;;;;;;;;;5048935;28;20044;-64
2023/10/16 09:47:25;;;;;;;0.10;0.10;;;;;;;;;;5048778;28;20053;-64
2023/10/16 09:49:53;;;;;;;0.00;0.00;;;;;;;;;;5048712;28;20048;-64
2023/10/16 09:52:21;;;;;;;0.00;0.00;;;;;;;;;;5048181;28;20056;-64
2023/10/16 09:54:51;;;;;;;0.50;0.50;;;;;;;;;;5050362;28;20503;-64
2023/10/16 09:57:27;;;;;;;0.00;0.00;;;;;;;;;;5051768;28;20495;-64
2023/10/16 09:59:54;;;;;;;0.00;0.00;;;;;;;;;;5048433;28;20045;-64
2023/10/16 10:02:25;;;;;;;0.00;0.00;;;;;;;;;;5048423;28;20049;-64
2023/10/16 10:04:59;;;;;;;0.00;0.00;;;;;;;;;;5049299;28;20045;-64
2023/10/16 10:07:34;;;;;;;0.10;0.10;;;;;;;;;;5048437;28;20061;-64
2023/10/16 10:10:39;;;;;;;0.00;0.00;;;;;;;;;;5047546;28;20126;-64
2023/10/16 10:12:48;;;;;;;0.00;0.00;;;;;;;;;;5047344;28;20099;-64
2023/10/16 10:15:33;;;;;;;0.00;0.00;;;;;;;;;;5047904;28;20108;-64
2023/10/16 10:18:03;;;;;;;0.00;0.00;;;;;;;;;;5057163;28;20045;-64
2023/10/16 10:20:32;;;;;;;0.00;0.00;;;;;;;;;;5068188;28;20055;-64
2023/10/16 10:23:08;;;;;;;0.00;0.00;;;;;;;;;;5067443;28;20109;-64
2023/10/16 10:25:38;;;;;;;0.20;0.20;;;;;;;;;;5068067;28;20170;-64
2023/10/16 10:28:28;;;;;;;0.00;0.00;;;;;;;;;;5068065;28;20102;-64
2023/10/16 10:30:55;;;;;;;0.00;0.00;;;;;;;;;;5067554;28;20529;-63
2023/10/16 10:33:38;;;;;;;0.00;0.00;;;;;;;;;;5067753;28;20075;-64
2023/10/16 10:36:23;;;;;;;0.00;0.00;;;;;;;;;;5056528;28;20071;-64
2023/10/16 10:38:49;;;;;;;0.00;0.00;;;;;;;;;;5048328;28;20313;-64
2023/10/16 10:41:15;;;;;;;0.00;0.00;;;;;;;;;;5047928;28;20150;-63
2023/10/16 10:43:49;;;;;;;0.00;0.00;;;;;;;;;;5051385;28;20107;-63
2023/10/16 10:46:27;;;;;;;0.00;0.00;;;;;;;;;;5052620;28;20095;-63
2023/10/16 10:48:56;;;;;;;0.00;0.00;;;;;;;;;;5051406;28;20474;-63
2023/10/16 10:51:23;;;;;;;0.50;0.50;;;;;;;;;;5051473;28;20052;-62
2023/10/16 10:53:53;;;;;;;0.03;0.03;;;;;;;;;;5051318;28;20052;-63
2023/10/16 10:56:20;;;;;;;0.00;0.00;;;;;;;;;;5051453;28;20838;-63
2023/10/16 10:58:47;;;;;;;0.00;0.00;;;;;;;;;;5051623;28;20163;-62
2023/10/16 11:01:16;;;;;;;0.00;0.00;;;;;;;;;;5051509;28;20045;-63
2023/10/16 11:03:45;;;;;;;0.00;0.00;;;;;;;;;;5069077;28;20412;-62
2023/10/16 11:06:20;;;;;;;0.00;0.00;;;;;;;;;;5071286;28;20045;-62
2023/10/16 11:08:55;;;;;;;0.00;0.00;;;;;;;;;;5055773;28;20045;-62
2023/10/16 11:11:22;;;;;;;0.03;0.00;;;;;;;;;;5065147;28;20052;-62
2023/10/16 11:13:48;;;;;;;0.00;0.00;;;;;;;;;;5050600;28;20041;-62
2023/10/16 11:16:15;;;;;;;0.53;0.40;;;;;;;;;;5051027;28;20124;-62
2023/10/16 11:18:43;;;;;;;1.33;0.53;;;;;;;;;;5052397;28;20045;-62
2023/10/16 11:21:09;;;;;;;0.00;0.00;;;;;;;;;;5051330;28;20490;-62
2023/10/16 11:23:40;;;;;;;0.00;0.00;;;;;;;;;;5069817;28;20124;-62
2023/10/16 11:26:06;;;;;;;0.00;0.00;;;;;;;;;;5069214;28;20045;-61
2023/10/16 11:28:35;;;;;;;0.10;0.10;;;;;;;;;;5067227;28;20177;-62
2023/10/16 11:31:04;;;;;;;0.00;0.00;;;;;;;;;;5051569;28;20503;-61
2023/10/16 11:33:35;;;;;;;0.00;0.00;;;;;;;;;;5050554;28;20099;-61
2023/10/16 11:36:06;;;;;;;0.77;0.67;;;;;;;;;;5050374;28;20124;-61
2023/10/16 11:38:35;;;;;;;0.00;0.00;;;;;;;;;;5050691;28;20053;-61
2023/10/16 11:41:24;;;;;;;0.00;0.00;;;;;;;;;;5050759;28;20052;-62
2023/10/16 11:43:54;;;;;;;0.00;0.00;;;;;;;;;;5050604;28;20099;-61
2023/10/16 11:46:33;;;;;;;0.00;0.00;;;;;;;;;;5050690;28;20041;-61
2023/10/16 11:51:45;;;;;;;;;;;;;;;;;;5051014;28;20055;-61
2023/10/16 11:54:11;;;;;;;0.00;0.00;;;;;;;;;;5049726;28;20007;-61
2023/10/16 11:56:37;;;;;;;0.00;0.00;;;;;;;;;;5050442;28;20069;-61
2023/10/16 11:59:09;;;;;;;0.07;0.07;;;;;;;;;;5050059;28;20045;-61
2023/10/16 12:01:35;;;;;;;0.00;0.00;;;;;;;;;;5050853;28;20510;-61
2023/10/16 12:04:02;;;;;;;0.00;0.00;;;;;;;;;;5066929;28;20072;-61
2023/10/16 12:06:28;;;;;;;0.23;0.23;;;;;;;;;;5070361;28;20080;-61
2023/10/16 12:08:54;;;;;;;0.93;0.43;;;;;;;;;;5070072;28;20053;-60
2023/10/16 12:11:23;;;;;;;0.20;0.20;;;;;;;;;;5070050;28;20041;-61
2023/10/16 12:13:49;;;;;;;0.37;0.37;;;;;;;;;;5070167;28;20059;-61
2023/10/16 12:16:17;;;;;;;0.00;0.00;;;;;;;;;;5069291;28;20127;-60
2023/10/16 12:18:43;;;;;;;0.00;0.00;;;;;;;;;;5070311;28;20045;-60
2023/10/16 12:21:12;;;;;;;0.00;0.00;;;;;;;;;;5070102;28;20045;-60
2023/10/16 12:23:38;;;;;;;0.00;0.00;;;;;;;;;;5070159;28;20151;-60
2023/10/16 12:26:05;;;;;;;0.00;0.00;;;;;;;;;;5051053;28;20037;-60
2023/10/16 12:28:31;;;;;;;0.13;0.13;;;;;;;;;;5060262;28;20055;-60
2023/10/16 12:30:57;;;;;;;0.53;0.43;;;;;;;;;;5069477;28;20410;-60
2023/10/16 12:33:27;;;;;;;0.00;0.00;;;;;;;;;;5069936;28;20131;-60
2023/10/16 12:35:57;;;;;;;0.00;0.00;;;;;;;;;;5069605;28;20490;-60
2023/10/16 12:38:26;;;;;;;0.00;0.00;;;;;;;;;;5069656;28;20068;-60
2023/10/16 12:40:55;;;;;;;0.00;0.00;;;;;;;;;;5064606;28;20255;-61
2023/10/16 12:43:21;;;;;;;0.00;0.00;;;;;;;;;;5055330;28;20055;-60
2023/10/16 12:45:51;;;;;;;0.57;0.33;;;;;;;;;;5059397;28;20052;-60
2023/10/16 12:48:17;;;;;;;0.00;0.00;;;;;;;;;;5068856;28;20054;-60
2023/10/16 12:50:47;;;;;;;1.30;0.83;;;;;;;;;;5069256;28;20048;-60
2023/10/16 12:53:14;;;;;;;0.20;0.20;;;;;;;;;;5068827;28;20048;-60
2023/10/16 12:55:40;;;;;;;0.00;0.00;;;;;;;;;;5068780;28;20632;-60
2023/10/16 12:58:10;;;;;;;0.40;0.40;;;;;;;;;;5068943;28;20052;-60
2023/10/16 13:00:39;;;;;;;0.00;0.00;;;;;;;;;;5068533;28;20101;-60
2023/10/16 13:03:15;;;;;;;0.00;0.00;;;;;;;;;;5069069;28;20123;-59
2023/10/16 13:05:42;;;;;;;0.00;0.00;;;;;;;;;;5068344;28;20510;-59
2023/10/16 13:08:08;;;;;;;0.00;0.00;;;;;;;;;;5068765;28;20075;-60
2023/10/16 13:10:34;;;;;;;0.00;0.00;;;;;;;;;;5068891;28;20131;-60
2023/10/16 13:13:00;;;;;;;0.20;0.17;;;;;;;;;;5068387;28;20067;-59
2023/10/16 13:15:31;;;;;;;0.00;0.00;;;;;;;;;;5068591;28;20041;-59
2023/10/16 13:17:57;;;;;;;0.00;0.00;;;;;;;;;;5068587;28;20087;-59
2023/10/16 13:20:32;;;;;;;0.10;0.10;;;;;;;;;;5068345;28;20045;-60
2023/10/16 13:22:58;;;;;;;0.00;0.00;;;;;;;;;;5068102;28;20048;-60
2023/10/16 13:25:25;;;;;;;0.00;0.00;;;;;;;;;;5068405;28;20728;-60
2023/10/16 13:27:55;;;;;;;0.00;0.00;;;;;;;;;;5068504;28;20084;-60
2023/10/16 13:30:22;;;;;;;0.10;0.10;;;;;;;;;;5068187;28;20420;-59
2023/10/16 13:32:48;;;;;;;0.00;0.00;;;;;;;;;;5068634;28;20040;-59
2023/10/16 13:35:18;;;;;;;0.00;0.00;;;;;;;;;;5068216;28;20094;-60
2023/10/16 13:37:45;;;;;;;0.10;0.10;;;;;;;;;;5068407;28;20064;-60
2023/10/16 13:40:21;;;;;;;0.00;0.00;;;;;;;;;;5068751;28;20072;-59
2023/10/16 13:42:50;;;;;;;0.00;0.00;;;;;;;;;;5068192;28;20044;-59
2023/10/16 13:45:16;;;;;;;0.00;0.00;;;;;;;;;;5068135;28;20380;-59
2023/10/16 13:47:45;;;;;;;0.00;0.00;;;;;;;;;;5067967;28;20040;-60
2023/10/16 13:50:15;;;;;;;0.00;0.00;;;;;;;;;;5068255;28;20056;-59
2023/10/16 13:52:46;;;;;;;0.00;0.00;;;;;;;;;;5067545;28;20055;-60
2023/10/16 13:55:12;;;;;;;0.00;0.00;;;;;;;;;;5068022;28;20430;-59
2023/10/16 13:57:47;;;;;;;0.00;0.00;;;;;;;;;;5068064;28;20123;-60
2023/10/16 14:00:29;;;;;;;0.00;0.00;;;;;;;;;;5068235;28;20136;-59
2023/10/16 14:02:59;;;;;;;0.00;0.00;;;;;;;;;;5068345;28;20047;-59
2023/10/16 14:05:28;;;;;;;0.00;0.00;;;;;;;;;;5067983;28;20528;-59
2023/10/16 14:07:54;;;;;;;0.00;0.00;;;;;;;;;;5068482;28;20048;-59
2023/10/16 14:10:21;;;;;;;0.00;0.00;;;;;;;;;;5068285;28;20414;-59
2023/10/16 14:12:58;;;;;;;0.00;0.00;;;;;;;;;;5067726;28;20048;-59
2023/10/16 14:15:26;;;;;;;0.00;0.00;;;;;;;;;;5067797;28;20041;-59
2023/10/16 14:17:53;;;;;;;0.00;0.00;;;;;;;;;;5070792;28;20382;-60
2023/10/16 14:20:34;;;;;;;0.00;0.00;;;;;;;;;;5071948;28;20514;-59
2023/10/16 14:23:00;;;;;;;0.23;0.20;;;;;;;;;;5072037;28;20418;-60
2023/10/16 14:25:32;;;;;;;0.00;0.00;;;;;;;;;;5072046;28;20088;-60
2023/10/16 14:28:44;;;;;;;0.00;0.00;;;;;;;;;;5071450;28;20040;-60
2023/10/16 14:30:51;;;;;;;0.00;0.00;;;;;;;;;;5068385;28;20052;-60
2023/10/16 14:33:20;;;;;;;0.00;0.00;;;;;;;;;;5071490;28;20049;-60
2023/10/16 14:35:49;;;;;;;0.00;0.00;;;;;;;;;;5071925;28;20094;-60
2023/10/16 14:38:17;;;;;;;0.00;0.00;;;;;;;;;;5071499;28;20068;-60
2023/10/16 14:40:44;;;;;;;0.00;0.00;;;;;;;;;;5071462;28;20110;-60
2023/10/16 14:43:10;;;;;;;0.00;0.00;;;;;;;;;;5071115;28;20152;-60
2023/10/16 14:45:37;;;;;;;0.00;0.00;;;;;;;;;;5071458;28;20566;-60
2023/10/16 14:48:03;;;;;;;0.00;0.00;;;;;;;;;;5071518;28;20044;-60
2023/10/16 14:50:33;;;;;;;0.00;0.00;;;;;;;;;;5071589;28;20036;-60
2023/10/16 14:53:00;;;;;;;0.00;0.00;;;;;;;;;;5071171;28;20041;-60
2023/10/16 14:55:27;;;;;;;0.47;0.27;;;;;;;;;;5071507;28;20770;-60
2023/10/16 14:57:55;;;;;;;0.10;0.03;;;;;;;;;;5071182;28;20052;-60
2023/10/16 15:00:27;;;;;;;0.00;0.00;;;;;;;;;;5071484;28;20044;-59
2023/10/16 15:02:54;;;;;;;0.00;0.00;;;;;;;;;;5071008;28;20123;-60
2023/10/16 15:05:20;;;;;;;0.10;0.10;;;;;;;;;;5071337;28;20036;-60
2023/10/16 15:07:46;;;;;;;0.00;0.00;;;;;;;;;;5071250;28;20387;-60
2023/10/16 15:10:12;;;;;;;0.00;0.00;;;;;;;;;;5070943;28;20044;-63
2023/10/16 15:12:39;;;;;;;0.13;0.10;;;;;;;;;;5071101;28;20060;-60
2023/10/16 15:15:08;;;;;;;0.00;0.00;;;;;;;;;;5070785;28;20044;-60
2023/10/16 15:17:35;;;;;;;0.20;0.17;;;;;;;;;;5070422;28;20094;-59
2023/10/16 15:20:03;;;;;;;0.33;0.23;;;;;;;;;;5071012;28;20159;-60
2023/10/16 15:22:29;;;;;;;0.00;0.00;;;;;;;;;;5071057;28;20080;-61
2023/10/16 15:24:56;;;;;;;0.00;0.00;;;;;;;;;;5070322;28;20036;-59
2023/10/16 15:27:22;;;;;;;0.00;0.00;;;;;;;;;;5070716;28;20083;-60
2023/10/16 15:29:48;;;;;;;0.00;0.00;;;;;;;;;;5069866;28;20498;-60
2023/10/16 15:32:14;;;;;;;0.00;0.00;;;;;;;;;;5070483;28;20063;-59
2023/10/16 15:34:40;;;;;;;0.00;0.00;;;;;;;;;;5070432;28;20407;-59
2023/10/16 15:37:08;;;;;;;0.00;0.00;;;;;;;;;;5070255;28;20057;-59
2023/10/16 15:39:34;;;;;;;0.00;0.00;;;;;;;;;;5070716;28;20513;-60
2023/10/16 15:42:00;;;;;;;0.00;0.00;;;;;;;;;;5070562;28;20056;-60
2023/10/16 15:44:26;;;;;;;0.00;0.00;;;;;;;;;;5070234;28;20048;-59
2023/10/16 15:46:52;;;;;;;0.00;0.00;;;;;;;;;;5070407;28;20052;-60
2023/10/16 15:49:19;;;;;;;0.10;0.10;;;;;;;;;;5070402;28;20093;-59
2023/10/16 15:51:45;;;;;;;0.00;0.00;;;;;;;;;;5069804;28;20506;-60
2023/10/16 15:54:14;;;;;;;0.00;0.00;;;;;;;;;;5070307;28;20067;-59
2023/10/16 15:56:40;;;;;;;0.00;0.00;;;;;;;;;;5069950;28;20056;-59
2023/10/16 15:59:06;;;;;;;0.00;0.00;;;;;;;;;;5069928;28;20089;-59
2023/10/16 16:01:34;;;;;;;0.00;0.00;;;;;;;;;;5070372;28;20044;-59
2023/10/16 16:04:01;;;;;;;0.00;0.00;;;;;;;;;;5070041;28;20057;-60
2023/10/16 16:06:29;;;;;;;0.00;0.00;;;;;;;;;;5069601;28;20048;-60
2023/10/16 16:08:55;;;;;;;0.00;0.00;;;;;;;;;;5070353;28;20049;-59
2023/10/16 16:11:27;;;;;;;0.00;0.00;;;;;;;;;;5070042;28;20040;-61
2023/10/16 16:13:53;;;;;;;0.00;0.00;;;;;;;;;;5070270;28;20103;-59
2023/10/16 16:16:21;;;;;;;0.00;0.00;;;;;;;;;;5069228;28;20470;-59
2023/10/16 16:18:48;;;;;;;0.00;0.00;;;;;;;;;;5070052;28;20167;-60
2023/10/16 16:21:16;;;;;;;0.00;0.00;;;;;;;;;;5069571;28;20048;-60
2023/10/16 16:23:45;;;;;;;0.00;0.00;;;;;;;;;;5069836;28;20044;-59
2023/10/16 16:26:11;;;;;;;0.00;0.00;;;;;;;;;;5069906;28;20059;-60
2023/10/16 16:28:38;;;;;;;0.00;0.00;;;;;;;;;;5069428;28;20048;-59
2023/10/16 16:31:06;;;;;;;0.00;0.00;;;;;;;;;;5069326;28;20122;-59
2023/10/16 16:33:32;;;;;;;0.00;0.00;;;;;;;;;;5069976;28;20060;-59
2023/10/16 16:35:58;;;;;;;0.00;0.00;;;;;;;;;;5069656;28;20041;-59
2023/10/16 16:38:24;;;;;;;0.00;0.00;;;;;;;;;;5069307;28;20052;-59
2023/10/16 16:40:50;;;;;;;0.00;0.00;;;;;;;;;;5069642;28;20075;-60
2023/10/16 16:43:18;;;;;;;0.00;0.00;;;;;;;;;;5068763;28;20052;-59
2023/10/16 16:45:46;;;;;;;0.00;0.00;;;;;;;;;;5069613;28;20375;-59
2023/10/16 16:48:13;;;;;;;0.00;0.00;;;;;;;;;;5069287;28;20078;-59